sensor_id;sensor_type;location;lat;lon;timestamp;pressure;altitude;pressure_sealevel;temperature;humidity
35226;BME280;21813;49.686;21.766;2023-07-13T00:01:31;98101.09;;;19.37;100.00
35226;BME280;21813;49.686;21.766;2023-07-13T00:04:00;98104.91;;;19.34;100.00
35226;BME280;21813;49.686;21.766;2023-07-13T00:06:33;98090.78;;;19.27;100.00
35226;BME280;21813;49.686;21.766;2023-07-13T00:24:12;98064.56;;;18.96;100.00
35226;BME280;21813;49.686;21.766;2023-07-13T00:41:01;98049.19;;;18.71;100.00
35226;BME280;21813;49.686;21.766;2023-07-13T00:47:02;98045.16;;;18.60;100.00
35226;BME280;21813;49.686;21.766;2023-07-13T00:49:42;98036.41;;;18.60;100.00
35226;BME280;21813;49.686;21.766;2023-07-13T00:52:28;98032.78;;;18.61;100.00
35226;BME280;21813;49.686;21.766;2023-07-13T00:58:27;98033.97;;;18.58;100.00
35226;BME280;21813;49.686;21.766;2023-07-13T01:00:55;98047.78;;;18.60;100.00
35226;BME280;21813;49.686;21.766;2023-07-13T01:03:55;98045.81;;;18.62;100.00
35226;BME280;21813;49.686;21.766;2023-07-13T01:06:49;98032.59;;;18.62;100.00
35226;BME280;21813;49.686;21.766;2023-07-13T01:09:17;98036.06;;;18.63;100.00
35226;BME280;21813;49.686;21.766;2023-07-13T01:12:00;98044.63;;;18.65;100.00
35226;BME280;21813;49.686;21.766;2023-07-13T01:27:55;98056.56;;;18.75;100.00
35226;BME280;21813;49.686;21.766;2023-07-13T01:30:41;98065.75;;;18.79;100.00
35226;BME280;21813;49.686;21.766;2023-07-13T01:33:25;98050.72;;;18.80;100.00
35226;BME280;21813;49.686;21.766;2023-07-13T01:47:18;98074.94;;;18.83;100.00
35226;BME280;21813;49.686;21.766;2023-07-13T01:50:44;98078.56;;;18.82;100.00
35226;BME280;21813;49.686;21.766;2023-07-13T01:53:30;98088.53;;;18.80;100.00
35226;BME280;21813;49.686;21.766;2023-07-13T01:56:09;98094.19;;;18.77;100.00
35226;BME280;21813;49.686;21.766;2023-07-13T02:02:29;98075.22;;;18.74;100.00
35226;BME280;21813;49.686;21.766;2023-07-13T02:06:00;98078.84;;;18.73;100.00
35226;BME280;21813;49.686;21.766;2023-07-13T02:48:20;98092.59;;;18.68;100.00
35226;BME280;21813;49.686;21.766;2023-07-13T02:50:51;98108.25;;;18.70;100.00
35226;BME280;21813;49.686;21.766;2023-07-13T03:22:27;98151.94;;;18.95;100.00
35226;BME280;21813;49.686;21.766;2023-07-13T03:25:07;98140.16;;;18.97;100.00
35226;BME280;21813;49.686;21.766;2023-07-13T03:41:52;98120.13;;;19.18;100.00
35226;BME280;21813;49.686;21.766;2023-07-13T03:44:32;98104.72;;;19.21;100.00
35226;BME280;21813;49.686;21.766;2023-07-13T03:47:09;98112.50;;;19.23;100.00
35226;BME280;21813;49.686;21.766;2023-07-13T04:03:33;98109.00;;;19.37;100.00
35226;BME280;21813;49.686;21.766;2023-07-13T04:20:30;98117.75;;;19.52;100.00
35226;BME280;21813;49.686;21.766;2023-07-13T04:23:00;98122.69;;;19.55;100.00
35226;BME280;21813;49.686;21.766;2023-07-13T05:17:38;98153.63;;;20.12;100.00
35226;BME280;21813;49.686;21.766;2023-07-13T05:20:19;98159.56;;;20.14;100.00
35226;BME280;21813;49.686;21.766;2023-07-13T05:33:28;98181.13;;;20.11;100.00
35226;BME280;21813;49.686;21.766;2023-07-13T05:35:55;98168.88;;;20.10;100.00
35226;BME280;21813;49.686;21.766;2023-07-13T05:38:21;98161.34;;;20.07;100.00
35226;BME280;21813;49.686;21.766;2023-07-13T05:40:49;98160.31;;;20.08;100.00
35226;BME280;21813;49.686;21.766;2023-07-13T05:43:15;98155.84;;;20.08;100.00
35226;BME280;21813;49.686;21.766;2023-07-13T05:45:41;98136.31;;;20.09;100.00
35226;BME280;21813;49.686;21.766;2023-07-13T05:48:06;98137.13;;;20.10;100.00
35226;BME280;21813;49.686;21.766;2023-07-13T05:50:32;98137.50;;;20.07;100.00
35226;BME280;21813;49.686;21.766;2023-07-13T05:53:07;98130.19;;;20.09;100.00
35226;BME280;21813;49.686;21.766;2023-07-13T06:33:28;98080.66;;;20.45;100.00
35226;BME280;21813;49.686;21.766;2023-07-13T06:36:13;98079.66;;;20.46;100.00
35226;BME280;21813;49.686;21.766;2023-07-13T06:38:39;98076.44;;;20.51;100.00
35226;BME280;21813;49.686;21.766;2023-07-13T06:41:22;98059.34;;;20.53;100.00
35226;BME280;21813;49.686;21.766;2023-07-13T06:44:39;98053.91;;;20.61;100.00
35226;BME280;21813;49.686;21.766;2023-07-13T06:47:06;98064.34;;;20.69;100.00
35226;BME280;21813;49.686;21.766;2023-07-13T07:02:40;98078.03;;;21.07;100.00
35226;BME280;21813;49.686;21.766;2023-07-13T07:05:07;98077.25;;;21.13;100.00
35226;BME280;21813;49.686;21.766;2023-07-13T07:07:47;98074.03;;;21.18;100.00
35226;BME280;21813;49.686;21.766;2023-07-13T07:10:14;98075.28;;;21.22;100.00
35226;BME280;21813;49.686;21.766;2023-07-13T07:12:42;98063.88;;;21.28;100.00
35226;BME280;21813;49.686;21.766;2023-07-13T07:15:09;98069.03;;;21.36;100.00
35226;BME280;21813;49.686;21.766;2023-07-13T07:17:38;98065.19;;;21.45;100.00
35226;BME280;21813;49.686;21.766;2023-07-13T07:54:25;98080.88;;;22.80;100.00
35226;BME280;21813;49.686;21.766;2023-07-13T07:57:01;98074.34;;;22.76;100.00
35226;BME280;21813;49.686;21.766;2023-07-13T08:59:18;98051.50;;;29.22;80.14
35226;BME280;21813;49.686;21.766;2023-07-13T09:02:25;98058.19;;;29.63;78.19
35226;BME280;21813;49.686;21.766;2023-07-13T09:05:05;98044.63;;;30.01;77.49
35226;BME280;21813;49.686;21.766;2023-07-13T09:10:49;98044.38;;;29.76;77.16
35226;BME280;21813;49.686;21.766;2023-07-13T09:17:01;98039.03;;;28.22;86.42
35226;BME280;21813;49.686;21.766;2023-07-13T09:19:38;98024.22;;;27.75;85.12
35226;BME280;21813;49.686;21.766;2023-07-13T09:22:06;98023.66;;;27.44;87.13
35226;BME280;21813;49.686;21.766;2023-07-13T09:25:29;98013.41;;;27.13;87.36
35226;BME280;21813;49.686;21.766;2023-07-13T09:28:28;98020.44;;;26.91;90.90
35226;BME280;21813;49.686;21.766;2023-07-13T09:31:32;98012.25;;;26.74;88.68
35226;BME280;21813;49.686;21.766;2023-07-13T09:34:15;98002.75;;;26.66;90.68
35226;BME280;21813;49.686;21.766;2023-07-13T09:36:42;98001.00;;;26.60;89.56
35226;BME280;21813;49.686;21.766;2023-07-13T09:41:43;97988.91;;;26.46;89.67
35226;BME280;21813;49.686;21.766;2023-07-13T09:44:13;97987.97;;;26.41;91.86
35226;BME280;21813;49.686;21.766;2023-07-13T09:48:14;97995.66;;;26.37;90.07
35226;BME280;21813;49.686;21.766;2023-07-13T09:51:14;97995.78;;;26.30;91.15
35226;BME280;21813;49.686;21.766;2023-07-13T09:53:43;97994.69;;;26.20;91.50
35226;BME280;21813;49.686;21.766;2023-07-13T09:56:20;97993.63;;;26.09;93.57
35226;BME280;21813;49.686;21.766;2023-07-13T09:59:22;97988.84;;;26.00;92.39
35226;BME280;21813;49.686;21.766;2023-07-13T10:02:00;97982.69;;;25.87;94.36
35226;BME280;21813;49.686;21.766;2023-07-13T10:04:32;97986.72;;;25.78;95.24
35226;BME280;21813;49.686;21.766;2023-07-13T10:07:49;97983.78;;;25.68;96.00
35226;BME280;21813;49.686;21.766;2023-07-13T10:10:23;97983.66;;;25.63;98.16
35226;BME280;21813;49.686;21.766;2023-07-13T10:12:52;97993.38;;;25.58;98.12
35226;BME280;21813;49.686;21.766;2023-07-13T10:15:35;97993.47;;;25.51;99.57
35226;BME280;21813;49.686;21.766;2023-07-13T10:18:09;97988.44;;;25.43;99.23
35226;BME280;21813;49.686;21.766;2023-07-13T10:20:35;97997.34;;;25.37;100.00
35226;BME280;21813;49.686;21.766;2023-07-13T10:23:07;98007.88;;;25.32;100.00
35226;BME280;21813;49.686;21.766;2023-07-13T10:25:45;98007.94;;;25.25;100.00
35226;BME280;21813;49.686;21.766;2023-07-13T10:28:42;98006.06;;;25.14;100.00
35226;BME280;21813;49.686;21.766;2023-07-13T10:31:16;98002.88;;;25.05;100.00
35226;BME280;21813;49.686;21.766;2023-07-13T10:33:57;97999.69;;;24.97;100.00
35226;BME280;21813;49.686;21.766;2023-07-13T10:36:42;98003.03;;;24.92;100.00
35226;BME280;21813;49.686;21.766;2023-07-13T10:39:16;98001.00;;;24.88;100.00
35226;BME280;21813;49.686;21.766;2023-07-13T10:41:57;97999.44;;;24.80;100.00
35226;BME280;21813;49.686;21.766;2023-07-13T10:44:39;97999.28;;;24.75;100.00
35226;BME280;21813;49.686;21.766;2023-07-13T10:47:14;97998.09;;;24.71;100.00
35226;BME280;21813;49.686;21.766;2023-07-13T10:49:40;98001.63;;;24.65;100.00
35226;BME280;21813;49.686;21.766;2023-07-13T10:55:56;97992.75;;;24.53;100.00
35226;BME280;21813;49.686;21.766;2023-07-13T11:04:29;97991.75;;;27.54;88.92
35226;BME280;21813;49.686;21.766;2023-07-13T11:06:57;97985.50;;;28.27;86.58
35226;BME280;21813;49.686;21.766;2023-07-13T11:12:06;97991.69;;;29.05;83.02
35226;BME280;21813;49.686;21.766;2023-07-13T11:17:55;97992.00;;;29.52;81.69
35226;BME280;21813;49.686;21.766;2023-07-13T11:20:39;97991.16;;;29.73;81.18
35226;BME280;21813;49.686;21.766;2023-07-13T11:25:47;97992.25;;;29.77;80.66
35226;BME280;21813;49.686;21.766;2023-07-13T11:29:25;97997.63;;;29.28;81.33
35226;BME280;21813;49.686;21.766;2023-07-13T11:35:09;98002.63;;;27.36;91.13
35226;BME280;21813;49.686;21.766;2023-07-13T11:37:45;98008.22;;;26.71;93.66
35226;BME280;21813;49.686;21.766;2023-07-13T11:40:28;98006.88;;;26.16;96.81
35226;BME280;21813;49.686;21.766;2023-07-13T11:46:55;98006.25;;;25.31;100.00
35226;BME280;21813;49.686;21.766;2023-07-13T12:53:50;97998.53;;;24.50;100.00
35226;BME280;21813;49.686;21.766;2023-07-13T12:56:38;97992.81;;;24.46;100.00
35226;BME280;21813;49.686;21.766;2023-07-13T12:59:09;98003.09;;;24.43;100.00
35226;BME280;21813;49.686;21.766;2023-07-13T13:02:32;98000.66;;;24.41;100.00
35226;BME280;21813;49.686;21.766;2023-07-13T13:05:26;97997.59;;;24.38;100.00
35226;BME280;21813;49.686;21.766;2023-07-13T13:08:23;98003.22;;;24.30;100.00
35226;BME280;21813;49.686;21.766;2023-07-13T13:11:07;97993.22;;;24.25;100.00
35226;BME280;21813;49.686;21.766;2023-07-13T13:35:58;98022.09;;;23.21;100.00
35226;BME280;21813;49.686;21.766;2023-07-13T13:38:49;98023.56;;;23.10;100.00
35226;BME280;21813;49.686;21.766;2023-07-13T13:44:45;98052.22;;;22.95;100.00
35226;BME280;21813;49.686;21.766;2023-07-13T13:47:32;98054.31;;;22.86;100.00
35226;BME280;21813;49.686;21.766;2023-07-13T13:50:16;98053.09;;;22.82;100.00
35226;BME280;21813;49.686;21.766;2023-07-13T13:52:42;98058.00;;;22.79;100.00
35226;BME280;21813;49.686;21.766;2023-07-13T13:55:25;98065.16;;;22.72;100.00
35226;BME280;21813;49.686;21.766;2023-07-13T13:57:58;98077.63;;;22.65;100.00
35226;BME280;21813;49.686;21.766;2023-07-13T14:00:48;98073.94;;;22.53;100.00
35226;BME280;21813;49.686;21.766;2023-07-13T14:03:24;98078.88;;;22.42;100.00
35226;BME280;21813;49.686;21.766;2023-07-13T14:05:51;98062.50;;;22.32;100.00
35226;BME280;21813;49.686;21.766;2023-07-13T14:08:31;98096.41;;;22.17;100.00
35226;BME280;21813;49.686;21.766;2023-07-13T14:13:58;98099.00;;;21.91;100.00
35226;BME280;21813;49.686;21.766;2023-07-13T14:16:27;98108.53;;;21.79;100.00
35226;BME280;21813;49.686;21.766;2023-07-13T14:19:07;98116.06;;;21.69;100.00
35226;BME280;21813;49.686;21.766;2023-07-13T14:21:34;98124.00;;;21.62;100.00
35226;BME280;21813;49.686;21.766;2023-07-13T14:24:00;98115.81;;;21.57;100.00
35226;BME280;21813;49.686;21.766;2023-07-13T14:26:29;98117.03;;;21.54;100.00
35226;BME280;21813;49.686;21.766;2023-07-13T14:28:56;98121.06;;;21.50;100.00
35226;BME280;21813;49.686;21.766;2023-07-13T14:31:34;98119.47;;;21.49;100.00
35226;BME280;21813;49.686;21.766;2023-07-13T14:34:02;98116.81;;;21.49;100.00
35226;BME280;21813;49.686;21.766;2023-07-13T14:36:43;98115.25;;;21.27;100.00
35226;BME280;21813;49.686;21.766;2023-07-13T14:39:17;98122.38;;;21.20;100.00
35226;BME280;21813;49.686;21.766;2023-07-13T14:41:43;98127.50;;;21.22;100.00
35226;BME280;21813;49.686;21.766;2023-07-13T14:44:14;98124.81;;;21.69;100.00
35226;BME280;21813;49.686;21.766;2023-07-13T14:46:41;98108.69;;;22.51;100.00
35226;BME280;21813;49.686;21.766;2023-07-13T14:51:48;98109.25;;;22.20;100.00
35226;BME280;21813;49.686;21.766;2023-07-13T14:54:16;98100.28;;;22.94;100.00
35226;BME280;21813;49.686;21.766;2023-07-13T14:56:42;98109.25;;;23.12;100.00
35226;BME280;21813;49.686;21.766;2023-07-13T14:59:10;98110.97;;;23.58;98.80
35226;BME280;21813;49.686;21.766;2023-07-13T15:01:37;98111.72;;;23.07;99.68
35226;BME280;21813;49.686;21.766;2023-07-13T15:04:06;98113.19;;;22.90;100.00
35226;BME280;21813;49.686;21.766;2023-07-13T15:06:55;98117.72;;;22.70;100.00
35226;BME280;21813;49.686;21.766;2023-07-13T15:09:24;98129.94;;;22.58;99.70
35226;BME280;21813;49.686;21.766;2023-07-13T15:11:54;98130.34;;;23.01;96.59
35226;BME280;21813;49.686;21.766;2023-07-13T15:15:04;98127.50;;;23.02;96.45
35226;BME280;21813;49.686;21.766;2023-07-13T15:17:43;98133.63;;;22.76;94.47
35226;BME280;21813;49.686;21.766;2023-07-13T15:20:15;98134.41;;;22.44;95.19
35226;BME280;21813;49.686;21.766;2023-07-13T15:22:43;98155.25;;;22.27;95.36
35226;BME280;21813;49.686;21.766;2023-07-13T15:25:17;98147.03;;;22.09;94.83
35226;BME280;21813;49.686;21.766;2023-07-13T15:27:45;98136.41;;;21.96;94.92
35226;BME280;21813;49.686;21.766;2023-07-13T15:30:11;98152.63;;;21.80;95.19
35226;BME280;21813;49.686;21.766;2023-07-13T15:32:38;98161.97;;;21.69;95.48
35226;BME280;21813;49.686;21.766;2023-07-13T15:35:05;98160.31;;;21.62;96.52
35226;BME280;21813;49.686;21.766;2023-07-13T15:37:32;98147.22;;;21.53;96.97
35226;BME280;21813;49.686;21.766;2023-07-13T15:40:05;98142.69;;;21.47;96.83
35226;BME280;21813;49.686;21.766;2023-07-13T15:42:58;98137.81;;;21.44;97.04
35226;BME280;21813;49.686;21.766;2023-07-13T15:45:34;98141.03;;;21.40;96.83
35226;BME280;21813;49.686;21.766;2023-07-13T15:48:18;98142.22;;;21.37;96.57
35226;BME280;21813;49.686;21.766;2023-07-13T15:53:42;98161.00;;;21.36;97.99
35226;BME280;21813;49.686;21.766;2023-07-13T15:56:23;98174.84;;;21.31;98.67
35226;BME280;21813;49.686;21.766;2023-07-13T15:58:59;98175.22;;;21.28;99.33
35226;BME280;21813;49.686;21.766;2023-07-13T16:01:28;98177.28;;;21.26;100.00
35226;BME280;21813;49.686;21.766;2023-07-13T16:03:55;98193.19;;;21.26;100.00
35226;BME280;21813;49.686;21.766;2023-07-13T16:06:24;98197.84;;;21.24;100.00
35226;BME280;21813;49.686;21.766;2023-07-13T16:24:19;98216.94;;;20.92;100.00
35226;BME280;21813;49.686;21.766;2023-07-13T16:27:08;98229.09;;;20.86;100.00
35226;BME280;21813;49.686;21.766;2023-07-13T16:33:10;98243.06;;;20.73;100.00
35226;BME280;21813;49.686;21.766;2023-07-13T16:35:39;98245.28;;;20.70;100.00
35226;BME280;21813;49.686;21.766;2023-07-13T16:38:18;98243.56;;;20.62;100.00
35226;BME280;21813;49.686;21.766;2023-07-13T16:40:55;98248.63;;;20.57;100.00
35226;BME280;21813;49.686;21.766;2023-07-13T16:43:21;98250.00;;;20.53;100.00
35226;BME280;21813;49.686;21.766;2023-07-13T16:46:07;98245.50;;;20.54;100.00
35226;BME280;21813;49.686;21.766;2023-07-13T16:49:30;98240.44;;;20.52;100.00
35226;BME280;21813;49.686;21.766;2023-07-13T16:52:14;98243.44;;;20.49;100.00
35226;BME280;21813;49.686;21.766;2023-07-13T16:54:49;98238.13;;;20.49;100.00
35226;BME280;21813;49.686;21.766;2023-07-13T16:57:36;98232.41;;;20.46;100.00
35226;BME280;21813;49.686;21.766;2023-07-13T17:00:25;98239.53;;;20.45;100.00
35226;BME280;21813;49.686;21.766;2023-07-13T17:02:57;98248.28;;;20.46;100.00
35226;BME280;21813;49.686;21.766;2023-07-13T17:05:38;98255.41;;;20.45;100.00
35226;BME280;21813;49.686;21.766;2023-07-13T17:11:00;98247.22;;;20.40;100.00
35226;BME280;21813;49.686;21.766;2023-07-13T17:13:36;98248.59;;;20.36;100.00
35226;BME280;21813;49.686;21.766;2023-07-13T17:16:16;98242.03;;;20.32;100.00
35226;BME280;21813;49.686;21.766;2023-07-13T17:18:53;98238.47;;;20.25;100.00
35226;BME280;21813;49.686;21.766;2023-07-13T17:21:23;98236.19;;;20.22;100.00
35226;BME280;21813;49.686;21.766;2023-07-13T17:30:38;98223.91;;;20.14;100.00
35226;BME280;21813;49.686;21.766;2023-07-13T17:33:28;98225.72;;;20.14;100.00
35226;BME280;21813;49.686;21.766;2023-07-13T17:35:55;98223.50;;;20.17;100.00
35226;BME280;21813;49.686;21.766;2023-07-13T17:41:50;98237.56;;;20.18;100.00
35226;BME280;21813;49.686;21.766;2023-07-13T17:44:16;98233.28;;;20.17;100.00
35226;BME280;21813;49.686;21.766;2023-07-13T17:53:28;98244.53;;;20.04;100.00
35226;BME280;21813;49.686;21.766;2023-07-13T17:59:25;98253.75;;;19.94;100.00
35226;BME280;21813;49.686;21.766;2023-07-13T18:02:17;98253.13;;;19.92;100.00
35226;BME280;21813;49.686;21.766;2023-07-13T18:04:46;98256.78;;;19.91;100.00
35226;BME280;21813;49.686;21.766;2023-07-13T18:07:17;98248.41;;;19.87;100.00
35226;BME280;21813;49.686;21.766;2023-07-13T18:10:13;98253.78;;;19.79;100.00
35226;BME280;21813;49.686;21.766;2023-07-13T18:16:29;98259.34;;;19.69;100.00
35226;BME280;21813;49.686;21.766;2023-07-13T18:19:44;98255.78;;;19.62;100.00
35226;BME280;21813;49.686;21.766;2023-07-13T18:25:03;98266.63;;;19.53;100.00
35226;BME280;21813;49.686;21.766;2023-07-13T18:28:19;98272.81;;;19.45;100.00
35226;BME280;21813;49.686;21.766;2023-07-13T18:43:09;98290.91;;;19.19;100.00
35226;BME280;21813;49.686;21.766;2023-07-13T18:45:38;98292.88;;;19.17;100.00
35226;BME280;21813;49.686;21.766;2023-07-13T18:48:04;98301.81;;;19.16;100.00
35226;BME280;21813;49.686;21.766;2023-07-13T18:50:33;98300.53;;;19.12;100.00
35226;BME280;21813;49.686;21.766;2023-07-13T18:56:05;98310.16;;;19.05;100.00
35226;BME280;21813;49.686;21.766;2023-07-13T18:58:32;98316.16;;;18.98;100.00
35226;BME280;21813;49.686;21.766;2023-07-13T19:01:02;98318.50;;;18.93;100.00
35226;BME280;21813;49.686;21.766;2023-07-13T19:03:47;98316.03;;;18.92;100.00
35226;BME280;21813;49.686;21.766;2023-07-13T19:06:46;98315.19;;;18.91;100.00
35226;BME280;21813;49.686;21.766;2023-07-13T19:12:31;98320.53;;;18.83;100.00
35226;BME280;21813;49.686;21.766;2023-07-13T19:14:56;98324.38;;;18.81;100.00
35226;BME280;21813;49.686;21.766;2023-07-13T19:17:26;98324.53;;;18.79;100.00
35226;BME280;21813;49.686;21.766;2023-07-13T19:20:02;98323.91;;;18.77;100.00
35226;BME280;21813;49.686;21.766;2023-07-13T19:22:42;98321.44;;;18.76;100.00
35226;BME280;21813;49.686;21.766;2023-07-13T19:25:17;98329.53;;;18.74;100.00
35226;BME280;21813;49.686;21.766;2023-07-13T19:28:00;98342.25;;;18.71;100.00
35226;BME280;21813;49.686;21.766;2023-07-13T19:37:17;98348.13;;;18.58;100.00
35226;BME280;21813;49.686;21.766;2023-07-13T19:39:39;98345.78;;;18.55;100.00
35226;BME280;21813;49.686;21.766;2023-07-13T19:42:13;98350.44;;;18.53;100.00
35226;BME280;21813;49.686;21.766;2023-07-13T19:44:40;98341.19;;;18.49;100.00
35226;BME280;21813;49.686;21.766;2023-07-13T19:47:12;98340.53;;;18.47;100.00
35226;BME280;21813;49.686;21.766;2023-07-13T19:49:38;98339.09;;;18.44;100.00
35226;BME280;21813;49.686;21.766;2023-07-13T19:52:11;98337.44;;;18.43;100.00
35226;BME280;21813;49.686;21.766;2023-07-13T19:54:38;98343.84;;;18.41;100.00
35226;BME280;21813;49.686;21.766;2023-07-13T19:57:14;98349.13;;;18.41;100.00
35226;BME280;21813;49.686;21.766;2023-07-13T19:59:40;98348.31;;;18.40;100.00
35226;BME280;21813;49.686;21.766;2023-07-13T20:02:07;98345.88;;;18.39;100.00
35226;BME280;21813;49.686;21.766;2023-07-13T20:04:33;98355.75;;;18.37;100.00
35226;BME280;21813;49.686;21.766;2023-07-13T20:07:01;98360.03;;;18.38;100.00
35226;BME280;21813;49.686;21.766;2023-07-13T20:09:28;98361.69;;;18.39;100.00
35226;BME280;21813;49.686;21.766;2023-07-13T20:12:01;98353.78;;;18.39;100.00
35226;BME280;21813;49.686;21.766;2023-07-13T20:14:27;98355.59;;;18.38;100.00
35226;BME280;21813;49.686;21.766;2023-07-13T20:22:50;98359.91;;;18.31;100.00
35226;BME280;21813;49.686;21.766;2023-07-13T20:25:22;98364.38;;;18.31;100.00
35226;BME280;21813;49.686;21.766;2023-07-13T20:27:49;98358.28;;;18.30;100.00
35226;BME280;21813;49.686;21.766;2023-07-13T20:30:26;98358.59;;;18.27;100.00
35226;BME280;21813;49.686;21.766;2023-07-13T20:36:39;98369.66;;;18.23;100.00
35226;BME280;21813;49.686;21.766;2023-07-13T20:39:13;98367.22;;;18.21;100.00
35226;BME280;21813;49.686;21.766;2023-07-13T21:00:13;98384.06;;;18.04;100.00
35226;BME280;21813;49.686;21.766;2023-07-13T21:02:45;98381.78;;;18.01;100.00
35226;BME280;21813;49.686;21.766;2023-07-13T21:05:20;98385.59;;;17.98;100.00
35226;BME280;21813;49.686;21.766;2023-07-13T21:10:49;98388.72;;;17.94;100.00
35226;BME280;21813;49.686;21.766;2023-07-13T21:13:31;98395.00;;;17.93;100.00
35226;BME280;21813;49.686;21.766;2023-07-13T21:16:09;98402.41;;;17.89;100.00
35226;BME280;21813;49.686;21.766;2023-07-13T21:19:42;98406.53;;;17.84;100.00
35226;BME280;21813;49.686;21.766;2023-07-13T21:22:38;98399.47;;;17.84;100.00
35226;BME280;21813;49.686;21.766;2023-07-13T21:25:22;98403.91;;;17.84;100.00
35226;BME280;21813;49.686;21.766;2023-07-13T21:28:05;98419.06;;;17.82;100.00
35226;BME280;21813;49.686;21.766;2023-07-13T21:33:54;98427.16;;;17.80;100.00
35226;BME280;21813;49.686;21.766;2023-07-13T21:39:56;98428.44;;;17.76;100.00
35226;BME280;21813;49.686;21.766;2023-07-13T21:42:36;98425.81;;;17.76;100.00
35226;BME280;21813;49.686;21.766;2023-07-13T21:45:37;98430.44;;;17.74;100.00
35226;BME280;21813;49.686;21.766;2023-07-13T21:48:19;98435.88;;;17.73;100.00
35226;BME280;21813;49.686;21.766;2023-07-13T21:50:47;98435.72;;;17.74;100.00
35226;BME280;21813;49.686;21.766;2023-07-13T21:53:30;98439.00;;;17.76;100.00
35226;BME280;21813;49.686;21.766;2023-07-13T21:56:08;98437.19;;;17.77;100.00
35226;BME280;21813;49.686;21.766;2023-07-13T22:02:14;98439.00;;;17.76;100.00
35226;BME280;21813;49.686;21.766;2023-07-13T22:05:07;98433.72;;;17.76;100.00
35226;BME280;21813;49.686;21.766;2023-07-13T22:07:44;98439.00;;;17.76;100.00
35226;BME280;21813;49.686;21.766;2023-07-13T22:10:19;98439.00;;;17.76;100.00
35226;BME280;21813;49.686;21.766;2023-07-13T22:13:01;98444.28;;;17.76;100.00
35226;BME280;21813;49.686;21.766;2023-07-13T22:15:33;98452.38;;;17.75;100.00
35226;BME280;21813;49.686;21.766;2023-07-13T22:18:05;98449.88;;;17.73;100.00
35226;BME280;21813;49.686;21.766;2023-07-13T22:20:45;98457.78;;;17.73;100.00
35226;BME280;21813;49.686;21.766;2023-07-13T22:23:25;98452.53;;;17.73;100.00
35226;BME280;21813;49.686;21.766;2023-07-13T22:25:55;98434.72;;;17.67;100.00
35226;BME280;21813;49.686;21.766;2023-07-13T22:28:41;98454.47;;;17.71;100.00
35226;BME280;21813;49.686;21.766;2023-07-13T22:31:25;98445.25;;;17.67;100.00
35226;BME280;21813;49.686;21.766;2023-07-13T22:34:00;98439.00;;;17.68;100.00
35226;BME280;21813;49.686;21.766;2023-07-13T22:36:28;98438.38;;;17.66;100.00
35226;BME280;21813;49.686;21.766;2023-07-13T22:39:02;98446.44;;;17.64;100.00
35226;BME280;21813;49.686;21.766;2023-07-13T22:41:41;98433.25;;;17.64;100.00
35226;BME280;21813;49.686;21.766;2023-07-13T22:47:27;98430.13;;;17.61;100.00
35226;BME280;21813;49.686;21.766;2023-07-13T22:50:16;98425.69;;;17.61;100.00
35226;BME280;21813;49.686;21.766;2023-07-13T22:52:59;98418.75;;;17.60;100.00
35226;BME280;21813;49.686;21.766;2023-07-13T22:55:46;98411.00;;;17.59;100.00
35226;BME280;21813;49.686;21.766;2023-07-13T23:01:30;98408.69;;;17.56;100.00
35226;BME280;21813;49.686;21.766;2023-07-13T23:04:22;98400.78;;;17.56;100.00
35226;BME280;21813;49.686;21.766;2023-07-13T23:07:12;98402.28;;;17.58;100.00
35226;BME280;21813;49.686;21.766;2023-07-13T23:10:17;98397.94;;;17.57;100.00
35226;BME280;21813;49.686;21.766;2023-07-13T23:12:58;98397.16;;;17.57;100.00
35226;BME280;21813;49.686;21.766;2023-07-13T23:15:58;98399.13;;;17.55;100.00
35226;BME280;21813;49.686;21.766;2023-07-13T23:18:37;98404.22;;;17.56;100.00
35226;BME280;21813;49.686;21.766;2023-07-13T23:21:19;98412.13;;;17.56;100.00
35226;BME280;21813;49.686;21.766;2023-07-13T23:23:52;98425.13;;;17.58;100.00
35226;BME280;21813;49.686;21.766;2023-07-13T23:26:43;98418.25;;;17.57;100.00
35226;BME280;21813;49.686;21.766;2023-07-13T23:29:32;98416.41;;;17.57;100.00
35226;BME280;21813;49.686;21.766;2023-07-13T23:32:09;98415.91;;;17.54;100.00
35226;BME280;21813;49.686;21.766;2023-07-13T23:34:40;98421.53;;;17.51;100.00
35226;BME280;21813;49.686;21.766;2023-07-13T23:37:17;98424.50;;;17.48;100.00
35226;BME280;21813;49.686;21.766;2023-07-13T23:39:45;98421.19;;;17.46;100.00
35226;BME280;21813;49.686;21.766;2023-07-13T23:42:29;98424.81;;;17.45;100.00
35226;BME280;21813;49.686;21.766;2023-07-13T23:45:28;98425.78;;;17.44;100.00
35226;BME280;21813;49.686;21.766;2023-07-13T23:48:04;98421.53;;;17.43;100.00
35226;BME280;21813;49.686;21.766;2023-07-13T23:50:37;98423.34;;;17.42;100.00
35226;BME280;21813;49.686;21.766;2023-07-13T23:53:24;98419.22;;;17.40;100.00
35226;BME280;21813;49.686;21.766;2023-07-13T23:55:52;98413.28;;;17.38;100.00
35226;BME280;21813;49.686;21.766;2023-07-13T23:58:39;98426.47;;;17.38;100.00
